sensor_id;sensor_type;location;lat;lon;timestamp;P1;durP1;ratioP1;P2;durP2;ratioP2
71513;SDS011;59335;46.652;21.272;2023-05-24T00:02:32;5.97;;;3.25;;
71513;SDS011;59335;46.652;21.272;2023-05-24T00:05:35;5.65;;;3.10;;
71513;SDS011;59335;46.652;21.272;2023-05-24T00:08:43;6.30;;;3.03;;
71513;SDS011;59335;46.652;21.272;2023-05-24T00:11:45;6.80;;;2.92;;
71513;SDS011;59335;46.652;21.272;2023-05-24T00:14:48;5.50;;;3.20;;
71513;SDS011;59335;46.652;21.272;2023-05-24T00:17:53;6.57;;;3.00;;
71513;SDS011;59335;46.652;21.272;2023-05-24T00:20:58;6.65;;;3.25;;
71513;SDS011;59335;46.652;21.272;2023-05-24T00:24:03;6.57;;;3.07;;
71513;SDS011;59335;46.652;21.272;2023-05-24T00:27:06;6.95;;;3.00;;
71513;SDS011;59335;46.652;21.272;2023-05-24T00:30:09;7.88;;;3.47;;
71513;SDS011;59335;46.652;21.272;2023-05-24T00:33:13;6.80;;;3.53;;
71513;SDS011;59335;46.652;21.272;2023-05-24T00:36:15;6.45;;;3.35;;
71513;SDS011;59335;46.652;21.272;2023-05-24T00:39:18;6.40;;;3.13;;
71513;SDS011;59335;46.652;21.272;2023-05-24T00:42:20;6.38;;;3.10;;
71513;SDS011;59335;46.652;21.272;2023-05-24T00:45:24;5.80;;;3.20;;
71513;SDS011;59335;46.652;21.272;2023-05-24T00:48:28;5.90;;;2.83;;
71513;SDS011;59335;46.652;21.272;2023-05-24T00:51:31;6.10;;;2.97;;
71513;SDS011;59335;46.652;21.272;2023-05-24T00:54:35;6.00;;;3.00;;
71513;SDS011;59335;46.652;21.272;2023-05-24T00:57:39;6.78;;;2.90;;
71513;SDS011;59335;46.652;21.272;2023-05-24T01:00:42;6.72;;;3.30;;
71513;SDS011;59335;46.652;21.272;2023-05-24T01:03:51;6.78;;;2.95;;
71513;SDS011;59335;46.652;21.272;2023-05-24T01:06:59;4.78;;;2.63;;
71513;SDS011;59335;46.652;21.272;2023-05-24T01:10:13;7.17;;;3.07;;
71513;SDS011;59335;46.652;21.272;2023-05-24T01:20:06;7.35;;;3.10;;
71513;SDS011;59335;46.652;21.272;2023-05-24T01:27:05;5.43;;;3.00;;
71513;SDS011;59335;46.652;21.272;2023-05-24T01:30:09;7.80;;;3.17;;
71513;SDS011;59335;46.652;21.272;2023-05-24T01:33:13;5.57;;;2.63;;
71513;SDS011;59335;46.652;21.272;2023-05-24T01:36:18;5.35;;;2.80;;
71513;SDS011;59335;46.652;21.272;2023-05-24T01:39:21;6.95;;;3.28;;
71513;SDS011;59335;46.652;21.272;2023-05-24T01:42:40;5.87;;;3.00;;
71513;SDS011;59335;46.652;21.272;2023-05-24T01:49:28;4.80;;;2.70;;
71513;SDS011;59335;46.652;21.272;2023-05-24T01:52:36;5.72;;;2.85;;
71513;SDS011;59335;46.652;21.272;2023-05-24T01:55:40;6.85;;;3.30;;
71513;SDS011;59335;46.652;21.272;2023-05-24T01:58:45;5.37;;;2.87;;
71513;SDS011;59335;46.652;21.272;2023-05-24T02:01:49;5.32;;;2.72;;
71513;SDS011;59335;46.652;21.272;2023-05-24T02:04:54;6.35;;;3.20;;
71513;SDS011;59335;46.652;21.272;2023-05-24T02:07:57;5.13;;;2.50;;
71513;SDS011;59335;46.652;21.272;2023-05-24T02:11:00;6.57;;;3.22;;
71513;SDS011;59335;46.652;21.272;2023-05-24T02:14:04;5.03;;;3.00;;
71513;SDS011;59335;46.652;21.272;2023-05-24T02:17:06;5.65;;;2.80;;
71513;SDS011;59335;46.652;21.272;2023-05-24T02:20:10;5.05;;;2.70;;
71513;SDS011;59335;46.652;21.272;2023-05-24T02:23:14;5.38;;;2.85;;
71513;SDS011;59335;46.652;21.272;2023-05-24T02:26:17;6.13;;;3.10;;
71513;SDS011;59335;46.652;21.272;2023-05-24T02:29:19;5.77;;;3.07;;
71513;SDS011;59335;46.652;21.272;2023-05-24T02:32:24;7.47;;;3.20;;
71513;SDS011;59335;46.652;21.272;2023-05-24T02:35:27;6.20;;;3.15;;
71513;SDS011;59335;46.652;21.272;2023-05-24T02:38:29;5.85;;;3.38;;
71513;SDS011;59335;46.652;21.272;2023-05-24T02:41:34;7.18;;;3.50;;
71513;SDS011;59335;46.652;21.272;2023-05-24T02:44:37;6.00;;;3.50;;
71513;SDS011;59335;46.652;21.272;2023-05-24T02:47:40;6.75;;;3.50;;
71513;SDS011;59335;46.652;21.272;2023-05-24T02:50:44;7.22;;;3.33;;
71513;SDS011;59335;46.652;21.272;2023-05-24T02:53:47;6.93;;;3.33;;
71513;SDS011;59335;46.652;21.272;2023-05-24T02:56:49;6.43;;;3.17;;
71513;SDS011;59335;46.652;21.272;2023-05-24T02:59:52;6.03;;;3.03;;
71513;SDS011;59335;46.652;21.272;2023-05-24T03:02:56;6.70;;;3.17;;
71513;SDS011;59335;46.652;21.272;2023-05-24T03:06:04;5.80;;;3.28;;
71513;SDS011;59335;46.652;21.272;2023-05-24T03:09:10;6.38;;;2.80;;
71513;SDS011;59335;46.652;21.272;2023-05-24T03:12:13;6.05;;;2.78;;
71513;SDS011;59335;46.652;21.272;2023-05-24T03:15:15;6.50;;;2.90;;
71513;SDS011;59335;46.652;21.272;2023-05-24T03:18:20;5.32;;;3.00;;
71513;SDS011;59335;46.652;21.272;2023-05-24T03:21:24;5.47;;;2.80;;
71513;SDS011;59335;46.652;21.272;2023-05-24T03:24:26;6.32;;;3.10;;
71513;SDS011;59335;46.652;21.272;2023-05-24T03:27:30;5.43;;;3.08;;
71513;SDS011;59335;46.652;21.272;2023-05-24T03:30:33;6.20;;;2.90;;
71513;SDS011;59335;46.652;21.272;2023-05-24T03:33:37;7.30;;;2.85;;
71513;SDS011;59335;46.652;21.272;2023-05-24T03:36:40;5.18;;;3.33;;
71513;SDS011;59335;46.652;21.272;2023-05-24T03:39:45;5.72;;;2.85;;
71513;SDS011;59335;46.652;21.272;2023-05-24T03:43:05;5.65;;;3.03;;
71513;SDS011;59335;46.652;21.272;2023-05-24T03:46:37;5.70;;;2.93;;
71513;SDS011;59335;46.652;21.272;2023-05-24T03:49:40;5.55;;;2.83;;
71513;SDS011;59335;46.652;21.272;2023-05-24T03:52:45;5.30;;;2.72;;
71513;SDS011;59335;46.652;21.272;2023-05-24T03:55:49;6.00;;;3.10;;
71513;SDS011;59335;46.652;21.272;2023-05-24T03:58:52;6.05;;;3.20;;
71513;SDS011;59335;46.652;21.272;2023-05-24T04:01:55;6.27;;;2.87;;
71513;SDS011;59335;46.652;21.272;2023-05-24T04:04:59;5.50;;;2.65;;
71513;SDS011;59335;46.652;21.272;2023-05-24T04:08:02;5.28;;;2.88;;
71513;SDS011;59335;46.652;21.272;2023-05-24T04:11:05;6.13;;;3.10;;
71513;SDS011;59335;46.652;21.272;2023-05-24T04:14:12;5.70;;;2.90;;
71513;SDS011;59335;46.652;21.272;2023-05-24T04:17:15;5.93;;;2.83;;
71513;SDS011;59335;46.652;21.272;2023-05-24T04:20:18;5.43;;;3.05;;
71513;SDS011;59335;46.652;21.272;2023-05-24T04:23:26;4.63;;;2.65;;
71513;SDS011;59335;46.652;21.272;2023-05-24T04:26:29;5.70;;;2.90;;
71513;SDS011;59335;46.652;21.272;2023-05-24T04:29:32;5.28;;;2.95;;
71513;SDS011;59335;46.652;21.272;2023-05-24T04:32:35;7.03;;;2.40;;
71513;SDS011;59335;46.652;21.272;2023-05-24T04:35:38;5.28;;;2.80;;
71513;SDS011;59335;46.652;21.272;2023-05-24T04:38:41;5.53;;;3.10;;
71513;SDS011;59335;46.652;21.272;2023-05-24T04:41:47;7.28;;;2.90;;
71513;SDS011;59335;46.652;21.272;2023-05-24T04:44:52;6.00;;;2.92;;
71513;SDS011;59335;46.652;21.272;2023-05-24T04:47:55;5.90;;;3.03;;
71513;SDS011;59335;46.652;21.272;2023-05-24T04:50:58;5.85;;;2.80;;
71513;SDS011;59335;46.652;21.272;2023-05-24T04:54:01;5.85;;;2.72;;
71513;SDS011;59335;46.652;21.272;2023-05-24T04:57:10;5.30;;;2.58;;
71513;SDS011;59335;46.652;21.272;2023-05-24T05:00:13;5.50;;;2.80;;
71513;SDS011;59335;46.652;21.272;2023-05-24T05:03:16;6.10;;;2.83;;
71513;SDS011;59335;46.652;21.272;2023-05-24T05:06:18;6.38;;;2.97;;
71513;SDS011;59335;46.652;21.272;2023-05-24T05:09:21;6.05;;;2.70;;
71513;SDS011;59335;46.652;21.272;2023-05-24T05:12:26;5.57;;;3.00;;
71513;SDS011;59335;46.652;21.272;2023-05-24T05:15:28;5.63;;;3.08;;
71513;SDS011;59335;46.652;21.272;2023-05-24T05:18:32;7.57;;;3.20;;
71513;SDS011;59335;46.652;21.272;2023-05-24T05:21:37;6.03;;;2.90;;
71513;SDS011;59335;46.652;21.272;2023-05-24T05:24:41;5.45;;;3.03;;
71513;SDS011;59335;46.652;21.272;2023-05-24T05:27:43;5.40;;;3.10;;
71513;SDS011;59335;46.652;21.272;2023-05-24T05:30:47;6.03;;;3.08;;
71513;SDS011;59335;46.652;21.272;2023-05-24T05:33:49;6.13;;;2.73;;
71513;SDS011;59335;46.652;21.272;2023-05-24T05:36:55;4.40;;;2.50;;
71513;SDS011;59335;46.652;21.272;2023-05-24T05:39:59;6.07;;;2.97;;
71513;SDS011;59335;46.652;21.272;2023-05-24T05:43:04;5.55;;;2.85;;
71513;SDS011;59335;46.652;21.272;2023-05-24T05:46:07;5.82;;;3.17;;
71513;SDS011;59335;46.652;21.272;2023-05-24T05:49:12;7.80;;;3.07;;
71513;SDS011;59335;46.652;21.272;2023-05-24T05:52:16;8.25;;;3.10;;
71513;SDS011;59335;46.652;21.272;2023-05-24T05:55:21;9.25;;;3.15;;
71513;SDS011;59335;46.652;21.272;2023-05-24T05:58:27;5.55;;;3.10;;
71513;SDS011;59335;46.652;21.272;2023-05-24T06:01:30;8.98;;;3.00;;
71513;SDS011;59335;46.652;21.272;2023-05-24T06:04:33;6.80;;;3.37;;
71513;SDS011;59335;46.652;21.272;2023-05-24T06:07:36;8.35;;;3.33;;
71513;SDS011;59335;46.652;21.272;2023-05-24T06:10:43;6.80;;;3.30;;
71513;SDS011;59335;46.652;21.272;2023-05-24T06:13:47;7.15;;;3.65;;
71513;SDS011;59335;46.652;21.272;2023-05-24T06:16:50;9.98;;;3.78;;
71513;SDS011;59335;46.652;21.272;2023-05-24T06:20:03;6.30;;;3.40;;
71513;SDS011;59335;46.652;21.272;2023-05-24T06:23:20;7.57;;;3.67;;
71513;SDS011;59335;46.652;21.272;2023-05-24T06:26:23;7.00;;;3.35;;
71513;SDS011;59335;46.652;21.272;2023-05-24T06:29:26;8.57;;;3.60;;
71513;SDS011;59335;46.652;21.272;2023-05-24T06:32:30;7.25;;;3.38;;
71513;SDS011;59335;46.652;21.272;2023-05-24T06:35:54;7.23;;;3.60;;
71513;SDS011;59335;46.652;21.272;2023-05-24T06:38:58;8.48;;;3.97;;
71513;SDS011;59335;46.652;21.272;2023-05-24T06:42:05;8.23;;;4.40;;
71513;SDS011;59335;46.652;21.272;2023-05-24T06:45:22;12.00;;;4.30;;
71513;SDS011;59335;46.652;21.272;2023-05-24T06:48:26;7.70;;;3.88;;
71513;SDS011;59335;46.652;21.272;2023-05-24T06:51:29;9.17;;;4.63;;
71513;SDS011;59335;46.652;21.272;2023-05-24T06:54:38;7.65;;;3.70;;
71513;SDS011;59335;46.652;21.272;2023-05-24T06:57:42;9.00;;;4.45;;
71513;SDS011;59335;46.652;21.272;2023-05-24T07:00:46;9.00;;;4.15;;
71513;SDS011;59335;46.652;21.272;2023-05-24T07:03:50;8.70;;;4.35;;
71513;SDS011;59335;46.652;21.272;2023-05-24T07:06:55;8.03;;;3.80;;
71513;SDS011;59335;46.652;21.272;2023-05-24T07:10:02;8.63;;;3.30;;
71513;SDS011;59335;46.652;21.272;2023-05-24T07:13:06;10.35;;;3.42;;
71513;SDS011;59335;46.652;21.272;2023-05-24T07:16:22;8.63;;;3.83;;
71513;SDS011;59335;46.652;21.272;2023-05-24T07:20:16;5.38;;;3.30;;
71513;SDS011;59335;46.652;21.272;2023-05-24T07:23:23;7.23;;;3.50;;
71513;SDS011;59335;46.652;21.272;2023-05-24T07:26:30;6.90;;;3.00;;
71513;SDS011;59335;46.652;21.272;2023-05-24T07:29:33;10.18;;;3.40;;
71513;SDS011;59335;46.652;21.272;2023-05-24T07:32:37;8.35;;;3.25;;
71513;SDS011;59335;46.652;21.272;2023-05-24T07:35:40;9.88;;;3.97;;
71513;SDS011;59335;46.652;21.272;2023-05-24T07:38:45;7.57;;;3.73;;
71513;SDS011;59335;46.652;21.272;2023-05-24T07:41:53;7.40;;;3.50;;
71513;SDS011;59335;46.652;21.272;2023-05-24T07:44:56;9.23;;;3.42;;
71513;SDS011;59335;46.652;21.272;2023-05-24T07:48:00;8.38;;;3.80;;
71513;SDS011;59335;46.652;21.272;2023-05-24T07:51:08;6.82;;;3.42;;
71513;SDS011;59335;46.652;21.272;2023-05-24T07:54:21;8.20;;;4.00;;
71513;SDS011;59335;46.652;21.272;2023-05-24T07:57:25;7.18;;;3.90;;
71513;SDS011;59335;46.652;21.272;2023-05-24T08:00:43;8.63;;;4.18;;
71513;SDS011;59335;46.652;21.272;2023-05-24T08:03:47;7.68;;;3.70;;
71513;SDS011;59335;46.652;21.272;2023-05-24T08:06:57;8.20;;;3.95;;
71513;SDS011;59335;46.652;21.272;2023-05-24T08:10:08;9.17;;;3.93;;
71513;SDS011;59335;46.652;21.272;2023-05-24T08:13:15;6.78;;;3.83;;
71513;SDS011;59335;46.652;21.272;2023-05-24T08:16:17;6.63;;;3.58;;
71513;SDS011;59335;46.652;21.272;2023-05-24T08:19:21;9.90;;;3.97;;
71513;SDS011;59335;46.652;21.272;2023-05-24T08:22:24;7.30;;;4.22;;
71513;SDS011;59335;46.652;21.272;2023-05-24T08:25:30;7.00;;;4.13;;
71513;SDS011;59335;46.652;21.272;2023-05-24T08:28:34;6.85;;;3.80;;
71513;SDS011;59335;46.652;21.272;2023-05-24T08:31:38;6.72;;;3.15;;
71513;SDS011;59335;46.652;21.272;2023-05-24T08:35:11;6.45;;;3.90;;
71513;SDS011;59335;46.652;21.272;2023-05-24T08:38:26;9.88;;;4.00;;
71513;SDS011;59335;46.652;21.272;2023-05-24T08:41:31;7.47;;;3.30;;
71513;SDS011;59335;46.652;21.272;2023-05-24T08:45:11;7.45;;;3.10;;
71513;SDS011;59335;46.652;21.272;2023-05-24T08:48:14;5.72;;;3.20;;
71513;SDS011;59335;46.652;21.272;2023-05-24T08:51:19;6.50;;;3.00;;
71513;SDS011;59335;46.652;21.272;2023-05-24T08:54:23;7.03;;;3.17;;
71513;SDS011;59335;46.652;21.272;2023-05-24T08:57:26;5.90;;;3.20;;
71513;SDS011;59335;46.652;21.272;2023-05-24T09:00:33;9.45;;;3.58;;
71513;SDS011;59335;46.652;21.272;2023-05-24T09:03:37;8.10;;;3.40;;
71513;SDS011;59335;46.652;21.272;2023-05-24T09:06:44;6.22;;;3.10;;
71513;SDS011;59335;46.652;21.272;2023-05-24T09:09:50;6.68;;;3.60;;
71513;SDS011;59335;46.652;21.272;2023-05-24T09:13:04;8.10;;;3.70;;
71513;SDS011;59335;46.652;21.272;2023-05-24T09:16:08;7.82;;;3.97;;
71513;SDS011;59335;46.652;21.272;2023-05-24T09:19:12;8.45;;;3.63;;
71513;SDS011;59335;46.652;21.272;2023-05-24T09:22:16;6.90;;;3.72;;
71513;SDS011;59335;46.652;21.272;2023-05-24T09:25:25;8.38;;;4.18;;
71513;SDS011;59335;46.652;21.272;2023-05-24T09:28:31;8.87;;;3.63;;
71513;SDS011;59335;46.652;21.272;2023-05-24T09:31:34;8.23;;;3.88;;
71513;SDS011;59335;46.652;21.272;2023-05-24T09:34:39;8.00;;;3.80;;
71513;SDS011;59335;46.652;21.272;2023-05-24T09:37:48;7.35;;;3.83;;
71513;SDS011;59335;46.652;21.272;2023-05-24T09:41:02;9.07;;;4.10;;
71513;SDS011;59335;46.652;21.272;2023-05-24T09:44:12;8.27;;;4.60;;
71513;SDS011;59335;46.652;21.272;2023-05-24T09:51:14;11.60;;;4.25;;
71513;SDS011;59335;46.652;21.272;2023-05-24T09:54:24;6.93;;;4.25;;
71513;SDS011;59335;46.652;21.272;2023-05-24T09:57:33;6.28;;;3.67;;
71513;SDS011;59335;46.652;21.272;2023-05-24T10:00:39;9.27;;;4.27;;
71513;SDS011;59335;46.652;21.272;2023-05-24T10:03:51;10.90;;;4.30;;
71513;SDS011;59335;46.652;21.272;2023-05-24T10:06:58;10.20;;;4.18;;
71513;SDS011;59335;46.652;21.272;2023-05-24T10:10:03;8.15;;;4.38;;
71513;SDS011;59335;46.652;21.272;2023-05-24T10:13:09;8.48;;;4.38;;
71513;SDS011;59335;46.652;21.272;2023-05-24T10:16:23;8.40;;;4.47;;
71513;SDS011;59335;46.652;21.272;2023-05-24T10:19:32;7.35;;;4.18;;
71513;SDS011;59335;46.652;21.272;2023-05-24T10:22:45;12.85;;;4.93;;
71513;SDS011;59335;46.652;21.272;2023-05-24T10:29:13;8.50;;;5.10;;
71513;SDS011;59335;46.652;21.272;2023-05-24T10:32:26;11.00;;;5.87;;
71513;SDS011;59335;46.652;21.272;2023-05-24T10:35:33;7.55;;;4.75;;
71513;SDS011;59335;46.652;21.272;2023-05-24T10:38:42;9.23;;;5.47;;
71513;SDS011;59335;46.652;21.272;2023-05-24T10:41:54;9.30;;;5.25;;
71513;SDS011;59335;46.652;21.272;2023-05-24T10:48:39;12.17;;;5.13;;
71513;SDS011;59335;46.652;21.272;2023-05-24T10:51:43;9.10;;;5.30;;
71513;SDS011;59335;46.652;21.272;2023-05-24T10:55:05;9.52;;;5.30;;
71513;SDS011;59335;46.652;21.272;2023-05-24T10:58:13;9.70;;;5.38;;
71513;SDS011;59335;46.652;21.272;2023-05-24T11:01:28;9.55;;;5.55;;
71513;SDS011;59335;46.652;21.272;2023-05-24T11:04:39;11.20;;;4.93;;
71513;SDS011;59335;46.652;21.272;2023-05-24T11:07:57;8.77;;;5.30;;
71513;SDS011;59335;46.652;21.272;2023-05-24T11:16:08;10.38;;;5.95;;
71513;SDS011;59335;46.652;21.272;2023-05-24T11:20:49;9.30;;;6.03;;
71513;SDS011;59335;46.652;21.272;2023-05-24T11:24:01;8.73;;;5.67;;
71513;SDS011;59335;46.652;21.272;2023-05-24T11:27:12;9.23;;;5.32;;
71513;SDS011;59335;46.652;21.272;2023-05-24T11:31:26;8.98;;;5.90;;
71513;SDS011;59335;46.652;21.272;2023-05-24T11:34:54;12.23;;;5.70;;
71513;SDS011;59335;46.652;21.272;2023-05-24T11:38:08;10.60;;;6.05;;
71513;SDS011;59335;46.652;21.272;2023-05-24T11:41:15;8.97;;;6.47;;
71513;SDS011;59335;46.652;21.272;2023-05-24T11:44:19;9.68;;;5.75;;
71513;SDS011;59335;46.652;21.272;2023-05-24T11:47:22;10.57;;;6.15;;
71513;SDS011;59335;46.652;21.272;2023-05-24T11:50:27;10.45;;;5.55;;
71513;SDS011;59335;46.652;21.272;2023-05-24T11:53:40;8.00;;;5.70;;
71513;SDS011;59335;46.652;21.272;2023-05-24T11:56:42;8.80;;;5.33;;
71513;SDS011;59335;46.652;21.272;2023-05-24T11:59:46;8.98;;;5.72;;
71513;SDS011;59335;46.652;21.272;2023-05-24T12:02:50;10.38;;;5.32;;
71513;SDS011;59335;46.652;21.272;2023-05-24T12:06:00;9.75;;;5.43;;
71513;SDS011;59335;46.652;21.272;2023-05-24T12:09:04;10.02;;;5.82;;
71513;SDS011;59335;46.652;21.272;2023-05-24T12:12:10;7.30;;;5.03;;
71513;SDS011;59335;46.652;21.272;2023-05-24T12:15:13;10.50;;;5.35;;
71513;SDS011;59335;46.652;21.272;2023-05-24T12:18:19;10.63;;;4.70;;
71513;SDS011;59335;46.652;21.272;2023-05-24T12:21:23;8.10;;;5.00;;
71513;SDS011;59335;46.652;21.272;2023-05-24T12:24:26;8.77;;;5.05;;
71513;SDS011;59335;46.652;21.272;2023-05-24T12:27:30;7.90;;;4.80;;
71513;SDS011;59335;46.652;21.272;2023-05-24T12:30:36;9.50;;;5.35;;
71513;SDS011;59335;46.652;21.272;2023-05-24T12:33:44;9.35;;;6.00;;
71513;SDS011;59335;46.652;21.272;2023-05-24T12:36:47;10.15;;;5.65;;
71513;SDS011;59335;46.652;21.272;2023-05-24T12:39:49;8.52;;;5.00;;
71513;SDS011;59335;46.652;21.272;2023-05-24T12:42:56;8.27;;;4.80;;
71513;SDS011;59335;46.652;21.272;2023-05-24T12:45:59;8.45;;;4.88;;
71513;SDS011;59335;46.652;21.272;2023-05-24T12:49:02;7.32;;;4.50;;
71513;SDS011;59335;46.652;21.272;2023-05-24T12:52:06;7.60;;;4.38;;
71513;SDS011;59335;46.652;21.272;2023-05-24T12:55:09;7.22;;;4.50;;
71513;SDS011;59335;46.652;21.272;2023-05-24T12:58:12;9.17;;;4.50;;
71513;SDS011;59335;46.652;21.272;2023-05-24T13:01:18;6.80;;;4.30;;
71513;SDS011;59335;46.652;21.272;2023-05-24T13:04:22;7.55;;;4.90;;
71513;SDS011;59335;46.652;21.272;2023-05-24T13:07:27;8.45;;;4.70;;
71513;SDS011;59335;46.652;21.272;2023-05-24T13:10:31;7.25;;;4.50;;
71513;SDS011;59335;46.652;21.272;2023-05-24T13:13:33;7.83;;;4.57;;
71513;SDS011;59335;46.652;21.272;2023-05-24T13:16:37;8.50;;;5.22;;
71513;SDS011;59335;46.652;21.272;2023-05-24T13:19:39;8.48;;;4.68;;
71513;SDS011;59335;46.652;21.272;2023-05-24T13:22:43;7.90;;;4.65;;
71513;SDS011;59335;46.652;21.272;2023-05-24T13:25:47;12.10;;;4.57;;
71513;SDS011;59335;46.652;21.272;2023-05-24T13:28:50;9.07;;;4.60;;
71513;SDS011;59335;46.652;21.272;2023-05-24T13:32:00;9.75;;;4.35;;
71513;SDS011;59335;46.652;21.272;2023-05-24T13:35:03;10.73;;;4.90;;
71513;SDS011;59335;46.652;21.272;2023-05-24T13:38:09;10.02;;;5.07;;
71513;SDS011;59335;46.652;21.272;2023-05-24T13:41:12;9.77;;;5.00;;
71513;SDS011;59335;46.652;21.272;2023-05-24T13:44:15;11.43;;;5.00;;
71513;SDS011;59335;46.652;21.272;2023-05-24T13:47:19;10.75;;;4.85;;
71513;SDS011;59335;46.652;21.272;2023-05-24T13:50:40;9.40;;;4.65;;
71513;SDS011;59335;46.652;21.272;2023-05-24T13:53:44;8.48;;;4.63;;
71513;SDS011;59335;46.652;21.272;2023-05-24T13:56:49;8.00;;;4.35;;
71513;SDS011;59335;46.652;21.272;2023-05-24T13:59:52;9.27;;;4.37;;
71513;SDS011;59335;46.652;21.272;2023-05-24T14:02:54;10.68;;;4.60;;
71513;SDS011;59335;46.652;21.272;2023-05-24T14:05:57;7.57;;;4.45;;
71513;SDS011;59335;46.652;21.272;2023-05-24T14:09:01;9.48;;;4.80;;
71513;SDS011;59335;46.652;21.272;2023-05-24T14:12:05;10.23;;;5.18;;
71513;SDS011;59335;46.652;21.272;2023-05-24T14:15:09;8.03;;;4.37;;
71513;SDS011;59335;46.652;21.272;2023-05-24T14:18:13;11.32;;;4.60;;
71513;SDS011;59335;46.652;21.272;2023-05-24T14:21:16;9.10;;;4.65;;
71513;SDS011;59335;46.652;21.272;2023-05-24T14:24:20;10.13;;;4.70;;
71513;SDS011;59335;46.652;21.272;2023-05-24T14:27:23;7.13;;;4.35;;
71513;SDS011;59335;46.652;21.272;2023-05-24T14:30:27;8.77;;;4.27;;
71513;SDS011;59335;46.652;21.272;2023-05-24T14:33:32;7.97;;;4.30;;
71513;SDS011;59335;46.652;21.272;2023-05-24T14:36:38;8.75;;;4.60;;
71513;SDS011;59335;46.652;21.272;2023-05-24T14:39:44;7.57;;;4.40;;
71513;SDS011;59335;46.652;21.272;2023-05-24T14:42:47;9.93;;;4.70;;
71513;SDS011;59335;46.652;21.272;2023-05-24T14:45:50;7.40;;;4.50;;
71513;SDS011;59335;46.652;21.272;2023-05-24T14:48:53;7.22;;;4.50;;
71513;SDS011;59335;46.652;21.272;2023-05-24T14:51:55;8.25;;;4.43;;
71513;SDS011;59335;46.652;21.272;2023-05-24T14:54:58;9.85;;;4.45;;
71513;SDS011;59335;46.652;21.272;2023-05-24T14:58:01;11.60;;;4.53;;
71513;SDS011;59335;46.652;21.272;2023-05-24T15:01:03;7.53;;;4.63;;
71513;SDS011;59335;46.652;21.272;2023-05-24T15:04:09;8.95;;;4.25;;
71513;SDS011;59335;46.652;21.272;2023-05-24T15:07:15;12.02;;;4.65;;
71513;SDS011;59335;46.652;21.272;2023-05-24T15:10:18;7.28;;;4.15;;
71513;SDS011;59335;46.652;21.272;2023-05-24T15:13:21;7.22;;;4.15;;
71513;SDS011;59335;46.652;21.272;2023-05-24T15:16:24;6.90;;;4.13;;
71513;SDS011;59335;46.652;21.272;2023-05-24T15:19:28;8.55;;;4.53;;
71513;SDS011;59335;46.652;21.272;2023-05-24T15:22:44;8.60;;;4.43;;
71513;SDS011;59335;46.652;21.272;2023-05-24T15:25:47;10.95;;;4.95;;
71513;SDS011;59335;46.652;21.272;2023-05-24T15:28:49;11.88;;;4.40;;
71513;SDS011;59335;46.652;21.272;2023-05-24T15:31:52;10.10;;;4.43;;
71513;SDS011;59335;46.652;21.272;2023-05-24T15:34:57;12.63;;;4.22;;
71513;SDS011;59335;46.652;21.272;2023-05-24T15:38:01;10.95;;;5.10;;
71513;SDS011;59335;46.652;21.272;2023-05-24T15:41:05;16.48;;;5.07;;
71513;SDS011;59335;46.652;21.272;2023-05-24T15:44:08;11.32;;;4.60;;
71513;SDS011;59335;46.652;21.272;2023-05-24T15:47:11;11.53;;;4.20;;
71513;SDS011;59335;46.652;21.272;2023-05-24T15:50:14;10.70;;;4.15;;
71513;SDS011;59335;46.652;21.272;2023-05-24T15:53:17;11.85;;;4.82;;
71513;SDS011;59335;46.652;21.272;2023-05-24T15:56:22;10.02;;;4.43;;
71513;SDS011;59335;46.652;21.272;2023-05-24T15:59:25;8.65;;;4.50;;
71513;SDS011;59335;46.652;21.272;2023-05-24T16:02:28;12.37;;;4.83;;
71513;SDS011;59335;46.652;21.272;2023-05-24T16:05:31;12.75;;;4.85;;
71513;SDS011;59335;46.652;21.272;2023-05-24T16:08:34;10.15;;;4.22;;
71513;SDS011;59335;46.652;21.272;2023-05-24T16:11:37;10.88;;;4.82;;
71513;SDS011;59335;46.652;21.272;2023-05-24T16:14:40;8.73;;;4.43;;
71513;SDS011;59335;46.652;21.272;2023-05-24T16:17:42;10.17;;;4.10;;
71513;SDS011;59335;46.652;21.272;2023-05-24T16:20:46;8.27;;;4.38;;
71513;SDS011;59335;46.652;21.272;2023-05-24T16:23:52;10.43;;;4.75;;
71513;SDS011;59335;46.652;21.272;2023-05-24T16:26:55;9.82;;;4.60;;
71513;SDS011;59335;46.652;21.272;2023-05-24T16:29:58;8.95;;;4.72;;
71513;SDS011;59335;46.652;21.272;2023-05-24T16:33:01;10.83;;;4.60;;
71513;SDS011;59335;46.652;21.272;2023-05-24T16:36:04;11.30;;;4.40;;
71513;SDS011;59335;46.652;21.272;2023-05-24T16:39:07;8.98;;;4.07;;
71513;SDS011;59335;46.652;21.272;2023-05-24T16:42:10;10.13;;;4.90;;
71513;SDS011;59335;46.652;21.272;2023-05-24T16:45:13;8.38;;;4.43;;
71513;SDS011;59335;46.652;21.272;2023-05-24T16:48:16;10.67;;;4.63;;
71513;SDS011;59335;46.652;21.272;2023-05-24T16:51:22;8.82;;;4.70;;
71513;SDS011;59335;46.652;21.272;2023-05-24T16:54:25;7.65;;;4.50;;
71513;SDS011;59335;46.652;21.272;2023-05-24T16:57:28;9.27;;;4.80;;
71513;SDS011;59335;46.652;21.272;2023-05-24T17:00:30;9.63;;;4.47;;
71513;SDS011;59335;46.652;21.272;2023-05-24T17:03:33;8.73;;;4.60;;
71513;SDS011;59335;46.652;21.272;2023-05-24T17:06:36;7.97;;;4.40;;
71513;SDS011;59335;46.652;21.272;2023-05-24T17:09:39;8.38;;;4.72;;
71513;SDS011;59335;46.652;21.272;2023-05-24T17:12:42;8.32;;;4.28;;
71513;SDS011;59335;46.652;21.272;2023-05-24T17:15:44;8.20;;;4.50;;
71513;SDS011;59335;46.652;21.272;2023-05-24T17:18:47;9.20;;;4.30;;
71513;SDS011;59335;46.652;21.272;2023-05-24T17:21:50;8.10;;;4.20;;
71513;SDS011;59335;46.652;21.272;2023-05-24T17:24:53;11.88;;;4.63;;
71513;SDS011;59335;46.652;21.272;2023-05-24T17:27:55;10.88;;;4.40;;
71513;SDS011;59335;46.652;21.272;2023-05-24T17:30:58;10.23;;;4.80;;
71513;SDS011;59335;46.652;21.272;2023-05-24T17:34:02;10.90;;;4.30;;
71513;SDS011;59335;46.652;21.272;2023-05-24T17:37:05;7.32;;;4.00;;
71513;SDS011;59335;46.652;21.272;2023-05-24T17:40:07;8.55;;;4.68;;
71513;SDS011;59335;46.652;21.272;2023-05-24T17:43:10;10.07;;;5.00;;
71513;SDS011;59335;46.652;21.272;2023-05-24T17:46:15;14.43;;;5.65;;
71513;SDS011;59335;46.652;21.272;2023-05-24T17:49:18;11.90;;;6.50;;
71513;SDS011;59335;46.652;21.272;2023-05-24T17:52:21;11.90;;;5.90;;
71513;SDS011;59335;46.652;21.272;2023-05-24T17:55:24;13.80;;;5.93;;
71513;SDS011;59335;46.652;21.272;2023-05-24T17:58:28;13.80;;;6.57;;
71513;SDS011;59335;46.652;21.272;2023-05-24T18:01:38;10.27;;;5.97;;
71513;SDS011;59335;46.652;21.272;2023-05-24T18:04:41;11.93;;;5.77;;
71513;SDS011;59335;46.652;21.272;2023-05-24T18:07:44;8.48;;;5.50;;
71513;SDS011;59335;46.652;21.272;2023-05-24T18:10:47;9.55;;;5.30;;
71513;SDS011;59335;46.652;21.272;2023-05-24T18:13:50;8.90;;;5.28;;
71513;SDS011;59335;46.652;21.272;2023-05-24T18:16:53;12.02;;;5.85;;
71513;SDS011;59335;46.652;21.272;2023-05-24T18:19:59;11.60;;;6.27;;
71513;SDS011;59335;46.652;21.272;2023-05-24T18:23:02;10.85;;;5.90;;
71513;SDS011;59335;46.652;21.272;2023-05-24T18:26:06;10.95;;;5.88;;
71513;SDS011;59335;46.652;21.272;2023-05-24T18:29:10;8.85;;;5.00;;
71513;SDS011;59335;46.652;21.272;2023-05-24T18:32:13;9.38;;;5.18;;
71513;SDS011;59335;46.652;21.272;2023-05-24T18:35:16;10.00;;;5.10;;
71513;SDS011;59335;46.652;21.272;2023-05-24T18:38:21;8.77;;;5.20;;
71513;SDS011;59335;46.652;21.272;2023-05-24T18:41:24;9.45;;;5.63;;
71513;SDS011;59335;46.652;21.272;2023-05-24T18:44:27;11.02;;;5.18;;
71513;SDS011;59335;46.652;21.272;2023-05-24T18:47:31;11.82;;;5.32;;
71513;SDS011;59335;46.652;21.272;2023-05-24T18:50:34;7.70;;;4.60;;